Time;durP1;ratioP1;P1;durP2;ratioP2;P2;SDS_P1;SDS_P2;PMS_P1;PMS_P2;Temp;Humidity;BMP_temperature;BMP_pressure;BME280_temperature;BME280_humidity;BME280_pressure;Samples;Min_cycle;Max_cycle;Signal;HPM_P1;HPM_P2
2022/02/08 00:00:11;;;;;;;67.10;62.63;;;;;;;11.57;100.00;102705.72;2013016;71;32772;-70
2022/02/08 00:06:07;;;;;;;64.53;60.23;;;;;;;11.58;100.00;102699.92;2016224;71;32846;-70
2022/02/08 00:11:47;;;;;;;63.13;58.83;;;;;;;11.54;100.00;102703.44;2001459;71;32880;-69
2022/02/08 00:17:31;;;;;;;66.30;61.77;;;;;;;11.53;100.00;102690.06;2003662;71;33329;-69
2022/02/08 00:23:16;;;;;;;65.80;61.50;;;;;;;11.49;100.00;102689.41;2002033;71;32873;-70
2022/02/08 00:29:00;;;;;;;65.97;61.50;;;;;;;11.50;100.00;102696.67;2016212;71;33392;-70
2022/02/08 00:34:45;;;;;;;65.27;60.90;;;;;;;11.47;100.00;102686.05;1994026;71;33291;-68
2022/02/08 00:40:30;;;;;;;62.63;58.43;;;;;;;11.47;100.00;102692.42;1990722;71;33349;-68
2022/02/08 00:46:20;;;;;;;66.23;61.93;;;;;;;11.48;100.00;102694.67;2008582;71;33323;-69
2022/02/08 00:52:06;;;;;;;64.33;60.03;;;;;;;11.48;100.00;102701.63;2016072;71;33389;-69
2022/02/08 00:57:48;;;;;;;65.10;60.70;;;;;;;11.52;100.00;102700.89;1990879;71;32795;-69
2022/02/08 01:03:33;;;;;;;68.20;63.80;;;;;;;11.47;100.00;102691.03;1996565;70;32951;-70
2022/02/08 01:09:29;;;;;;;65.00;60.73;;;;;;;11.39;100.00;102698.38;1994578;71;32769;-69
2022/02/08 01:15:09;;;;;;;63.63;59.37;;;;;;;11.45;100.00;102700.73;1999606;70;32872;-69
2022/02/08 01:20:53;;;;;;;62.13;57.90;;;;;;;11.51;100.00;102705.33;1999675;71;32873;-69
2022/02/08 01:26:46;;;;;;;64.10;59.97;;;;;;;11.57;100.00;102702.94;2017723;71;32874;-69
2022/02/08 01:32:52;;;;;;;66.70;62.83;;;;;;;11.49;100.00;102702.78;2012748;71;32960;-69
2022/02/08 01:38:29;;;;;;;67.33;63.43;;;;;;;11.51;100.00;102699.77;2008666;71;33384;-69
2022/02/08 01:44:23;;;;;;;67.27;63.13;;;;;;;11.49;100.00;102701.39;2007032;71;32815;-69
2022/02/08 01:50:11;;;;;;;65.60;61.60;;;;;;;11.57;100.00;102704.33;2014393;71;33332;-68
2022/02/08 01:55:57;;;;;;;63.73;59.93;;;;;;;11.50;100.00;102703.63;2015761;71;32906;-70
2022/02/08 02:01:42;;;;;;;68.40;64.23;;;;;;;11.50;100.00;102698.06;1977661;71;32901;-69
2022/02/08 02:07:30;;;;;;;65.60;61.70;;;;;;;11.50;100.00;102717.00;2016070;71;33252;-69
2022/02/08 02:13:29;;;;;;;67.13;62.90;;;;;;;11.46;100.00;102708.00;2005584;71;32860;-70
2022/02/08 02:19:02;;;;;;;67.00;62.80;;;;;;;11.47;100.00;102704.13;2009448;71;32846;-69
2022/02/08 02:24:47;;;;;;;67.43;63.23;;;;;;;11.46;100.00;102708.00;1994327;71;33029;-70
2022/02/08 02:30:34;;;;;;;65.30;61.37;;;;;;;11.46;100.00;102711.63;1990927;71;32866;-70
2022/02/08 02:36:18;;;;;;;66.43;62.27;;;;;;;11.45;100.00;102713.27;2005581;71;33282;-69
2022/02/08 02:42:02;;;;;;;66.17;61.97;;;;;;;11.42;100.00;102716.81;1996695;71;33262;-70
2022/02/08 02:47:50;;;;;;;69.40;64.97;;;;;;;11.44;100.00;102706.84;1997988;71;32817;-69
2022/02/08 02:53:35;;;;;;;67.67;63.53;;;;;;;11.44;100.00;102709.62;1994169;71;32815;-70
2022/02/08 02:59:21;;;;;;;67.83;63.70;;;;;;;11.42;100.00;102711.83;2014429;71;33402;-70
2022/02/08 03:05:19;;;;;;;69.63;65.43;;;;;;;11.42;100.00;102714.03;2003965;71;33302;-70
2022/02/08 03:17:36;;;;;;;70.30;66.10;;;;;;;11.37;100.00;102703.36;2007251;71;33463;-68
2022/02/08 03:23:14;;;;;;;70.43;66.23;;;;;;;11.38;100.00;102695.33;2009514;71;32778;-69
2022/02/08 03:28:58;;;;;;;70.90;66.50;;;;;;;11.35;100.00;102697.19;2003380;71;33033;-69
2022/02/08 03:34:43;;;;;;;69.40;65.20;;;;;;;11.41;100.00;102696.22;1999826;71;32850;-69
2022/02/08 03:40:40;;;;;;;68.33;64.23;;;;;;;11.37;100.00;102687.52;1997825;71;33005;-68
2022/02/08 03:46:29;;;;;;;68.97;64.67;;;;;;;11.36;100.00;102689.14;1996643;71;32762;-69
2022/02/08 03:52:10;;;;;;;69.67;65.57;;;;;;;11.33;100.00;102678.52;2014304;71;32863;-68
2022/02/08 03:57:55;;;;;;;68.73;64.63;;;;;;;11.31;100.00;102687.09;2009116;71;32863;-68
2022/02/08 04:03:52;;;;;;;67.77;63.77;;;;;;;11.32;100.00;102691.58;2016281;71;33416;-69
2022/02/08 04:09:27;;;;;;;65.93;62.03;;;;;;;11.31;100.00;102692.66;2018138;71;33377;-69
2022/02/08 04:15:27;;;;;;;66.40;62.47;;;;;;;11.36;100.00;102687.75;2004770;71;32908;-69
2022/02/08 04:33:13;;;;;;;66.10;62.20;;;;;;;11.38;100.00;102685.59;1994361;71;32806;-70
2022/02/08 04:38:59;;;;;;;65.20;61.30;;;;;;;11.41;100.00;102681.76;2010788;71;32907;-69
2022/02/08 04:44:47;;;;;;;63.80;59.90;;;;;;;11.42;100.00;102682.61;2000000;71;32899;-69
2022/02/08 04:50:31;;;;;;;64.33;60.33;;;;;;;11.47;100.00;102679.91;1956216;72;31344;-68
2022/02/08 04:56:23;;;;;;;64.73;60.83;;;;;;;11.49;100.00;102679.12;1994325;71;32975;-70
2022/02/08 05:02:30;;;;;;;64.73;60.83;;;;;;;11.46;100.00;102669.89;1936663;71;39856;-70
2022/02/08 05:44:34;;;;;;;61.07;57.57;;;;;;;11.50;100.00;102685.00;2017906;71;32954;-68
2022/02/08 05:50:26;;;;;;;59.60;56.30;;;;;;;11.54;100.00;102673.67;2009135;71;32888;-70
2022/02/08 05:56:10;;;;;;;58.93;55.30;;;;;;;11.51;100.00;102676.92;2017684;71;33402;-68
2022/02/08 06:01:54;;;;;;;58.07;54.63;;;;;;;11.49;100.00;102674.10;2014297;71;33485;-70
2022/02/08 06:07:38;;;;;;;59.57;56.10;;;;;;;11.56;100.00;102680.36;2014205;71;32837;-68
2022/02/08 06:13:26;;;;;;;58.43;54.73;;;;;;;11.53;100.00;102683.11;2014714;71;33314;-69
2022/02/08 06:19:10;;;;;;;58.37;55.07;;;;;;;11.53;100.00;102664.16;1998523;71;33371;-69
2022/02/08 06:24:57;;;;;;;59.03;55.60;;;;;;;11.53;100.00;102671.97;2015722;71;33368;-69
2022/02/08 06:30:45;;;;;;;57.30;54.10;;;;;;;11.51;100.00;102671.36;1997808;71;33280;-68
2022/02/08 06:36:30;;;;;;;56.13;52.70;;;;;;;11.58;100.00;102669.84;2008911;71;33369;-68
2022/02/08 06:42:14;;;;;;;56.50;53.20;;;;;;;11.60;100.00;102668.48;1999848;71;33215;-69
2022/02/08 06:47:59;;;;;;;56.57;53.33;;;;;;;11.59;100.00;102672.39;2008699;71;32809;-68
2022/02/08 06:53:45;;;;;;;56.90;53.60;;;;;;;11.65;100.00;102683.91;2000211;71;32798;-71
2022/02/08 06:59:36;;;;;;;56.67;53.20;;;;;;;11.58;100.00;102691.56;2000167;71;32808;-70
2022/02/08 07:05:15;;;;;;;56.77;53.50;;;;;;;11.61;100.00;102687.42;2005279;71;32745;-70
2022/02/08 07:11:01;;;;;;;64.60;59.83;;;;;;;11.65;100.00;102698.36;2012880;71;32757;-70
2022/02/08 07:16:45;;;;;;;59.83;56.43;;;;;;;11.65;100.00;102708.11;1998148;71;32926;-71
2022/02/08 07:22:31;;;;;;;61.43;57.83;;;;;;;11.65;100.00;102711.73;1996489;71;33231;-70
2022/02/08 07:28:16;;;;;;;55.27;51.87;;;;;;;11.69;100.00;102719.05;1994224;71;32743;-70
2022/02/08 07:34:14;;;;;;;58.80;55.20;;;;;;;11.73;100.00;102723.06;2007190;71;33225;-71
2022/02/08 07:39:52;;;;;;;55.70;52.53;;;;;;;11.67;100.00;102727.67;2012227;71;33032;-70
2022/02/08 07:45:35;;;;;;;58.80;55.40;;;;;;;11.76;100.00;102723.98;2015932;71;33266;-70
2022/02/08 07:51:23;;;;;;;59.63;56.23;;;;;;;11.73;100.00;102722.52;2002084;71;33379;-69
2022/02/08 07:57:08;;;;;;;59.13;55.70;;;;;;;11.76;100.00;102727.61;1999496;71;33350;-74
2022/02/08 08:02:53;;;;;;;60.43;56.83;;;;;;;11.71;100.00;102729.41;1993801;71;32865;-71
2022/02/08 08:08:38;;;;;;;60.20;56.70;;;;;;;11.70;100.00;102738.30;1993821;71;32854;-72
2022/02/08 08:14:25;;;;;;;57.53;53.93;;;;;;;11.70;100.00;102741.09;2010774;71;32870;-74
2022/02/08 08:20:11;;;;;;;64.90;61.10;;;;;;;11.65;100.00;102747.93;1990866;71;32811;-75
2022/02/08 08:25:57;;;;;;;63.80;60.17;;;;;;;11.68;100.00;102746.61;2012250;70;33355;-80
2022/02/08 08:31:41;;;;;;;58.27;54.80;;;;;;;11.74;100.00;102745.64;2008529;71;32849;-74
2022/02/08 08:37:26;;;;;;;62.43;58.63;;;;;;;11.79;100.00;102755.50;2002901;71;32790;-74
2022/02/08 08:43:38;;;;;;;62.43;58.63;;;;;;;11.73;100.00;102754.53;1999579;71;32781;-74
2022/02/08 08:55:16;;;;;;;60.07;56.00;;;;;;;11.76;100.00;102764.34;2008589;71;33075;-73
2022/02/08 09:01:01;;;;;;;57.37;54.07;;;;;;;11.82;100.00;102764.20;1991117;70;32762;-71
2022/02/08 09:06:45;;;;;;;58.47;54.97;;;;;;;11.96;100.00;102763.37;2011199;71;32864;-75
2022/02/08 09:12:54;;;;;;;57.67;54.27;;;;;;;12.00;100.00;102763.70;2015835;71;32845;-75
2022/02/08 09:18:48;;;;;;;55.03;51.93;;;;;;;12.11;100.00;102754.45;1999753;71;32872;-75
2022/02/08 09:30:38;;;;;;;54.07;50.70;;;;;;;12.20;100.00;102733.45;2012276;71;32880;-71
2022/02/08 09:36:24;;;;;;;52.00;48.50;;;;;;;12.33;100.00;102738.71;2017688;71;32987;-72
2022/02/08 09:42:10;;;;;;;54.20;50.83;;;;;;;12.43;100.00;102738.91;2015726;71;33299;-72
2022/02/08 09:47:59;;;;;;;50.53;47.60;;;;;;;12.47;100.00;102740.63;2001914;71;33264;-74
2022/02/08 09:53:43;;;;;;;50.90;47.90;;;;;;;12.61;100.00;102739.22;1997879;71;32825;-74
2022/02/08 09:59:34;;;;;;;49.27;46.37;;;;;;;12.59;100.00;102742.79;2004625;71;32902;-70
2022/02/08 10:05:19;;;;;;;49.70;46.80;;;;;;;12.61;100.00;102734.48;1996201;71;33220;-75
2022/02/08 10:11:14;;;;;;;49.30;46.37;;;;;;;12.64;100.00;102740.09;2008797;71;32841;-73
2022/02/08 10:23:04;;;;;;;48.90;46.20;;;;;;;12.80;100.00;102732.27;2003629;71;32863;-71
2022/02/08 10:28:55;;;;;;;47.43;44.57;;;;;;;12.81;100.00;102720.57;2015828;71;32830;-72
2022/02/08 10:40:46;;;;;;;49.97;46.97;;;;;;;12.87;100.00;102729.33;2010538;71;32834;-73
2022/02/08 10:46:31;;;;;;;47.80;44.97;;;;;;;12.93;100.00;102742.23;2010598;71;32838;-72
2022/02/08 10:52:17;;;;;;;46.57;43.97;;;;;;;12.93;100.00;102729.14;2008433;71;32845;-72
2022/02/08 10:58:18;;;;;;;48.13;45.43;;;;;;;13.05;100.00;102731.84;1999807;71;33404;-74
2022/02/08 11:04:06;;;;;;;46.83;44.03;;;;;;;13.17;100.00;102734.86;1990543;71;32899;-72
2022/02/08 11:10:07;;;;;;;48.13;45.17;;;;;;;13.09;100.00;102736.62;2005401;71;32780;-74
2022/02/08 11:15:58;;;;;;;47.30;44.60;;;;;;;13.09;100.00;102741.39;2002956;71;32849;-71
2022/02/08 11:22:00;;;;;;;47.57;44.67;;;;;;;13.16;100.00;102729.52;2003101;71;33372;-73
2022/02/08 11:27:49;;;;;;;46.30;43.60;;;;;;;13.28;100.00;102726.06;1964573;72;33074;-73
2022/02/08 11:40:24;;;;;;;45.80;43.00;;;;;;;13.29;100.00;102712.41;2014284;71;33332;-72
2022/02/08 11:46:01;;;;;;;45.37;42.80;;;;;;;13.39;100.00;102720.09;1997565;71;32896;-74
2022/02/08 11:51:54;;;;;;;45.93;43.07;;;;;;;13.28;100.00;102716.30;2003044;71;34663;-75
2022/02/08 12:10:18;;;;;;;46.57;43.97;;;;;;;13.44;100.00;102711.20;1997436;71;32892;-72
2022/02/08 12:58:56;;;;;;;42.97;40.47;;;;;;;13.46;100.00;102688.07;2007294;71;32778;-74
2022/02/08 13:05:02;;;;;;;41.43;39.03;;;;;;;13.48;100.00;102685.84;2010313;71;32875;-73
2022/02/08 14:06:50;;;;;;;39.60;37.60;;;;;;;13.52;100.00;102657.70;1990699;71;32860;-69
2022/02/08 14:19:21;;;;;;;41.60;39.43;;;;;;;13.45;100.00;102657.06;2017591;71;32828;-71
2022/02/08 14:25:23;;;;;;;42.23;39.90;;;;;;;13.48;100.00;102639.78;2014226;71;32824;-69
2022/02/08 14:31:41;;;;;;;42.97;40.67;;;;;;;13.45;100.00;102642.25;2014123;71;32839;-72
2022/02/08 15:28:41;;;;;;;46.10;43.50;;;;;;;13.16;100.00;102631.86;2014179;71;32875;-71
2022/02/08 15:34:44;;;;;;;44.10;41.40;;;;;;;13.22;100.00;102626.64;1997711;70;33262;-73
2022/02/08 15:40:48;;;;;;;44.23;41.60;;;;;;;13.23;100.00;102623.57;1999327;71;32898;-71
2022/02/08 15:46:52;;;;;;;44.50;42.00;;;;;;;13.18;100.00;102617.07;2010886;71;32878;-71
2022/02/08 15:53:12;;;;;;;46.40;43.60;;;;;;;13.20;100.00;102605.11;2008783;71;33476;-71
2022/02/08 16:05:52;;;;;;;46.70;44.10;;;;;;;13.19;100.00;102583.34;2014052;71;32845;-70
2022/02/08 16:11:57;;;;;;;45.07;42.57;;;;;;;13.14;100.00;102592.19;2016102;71;32916;-73
2022/02/08 16:18:03;;;;;;;46.20;43.57;;;;;;;13.13;100.00;102601.69;2003634;71;33277;-71
2022/02/08 16:24:10;;;;;;;46.53;44.03;;;;;;;13.10;100.00;102603.03;2012413;71;32834;-72
2022/02/08 16:55:51;;;;;;;47.27;44.57;;;;;;;13.01;100.00;102611.52;2003752;71;33325;-72
2022/02/08 17:01:52;;;;;;;47.77;44.97;;;;;;;12.90;100.00;102607.47;2014027;71;33404;-72
2022/02/08 17:07:55;;;;;;;50.23;47.23;;;;;;;12.84;100.00;102614.91;1994686;71;33317;-72
2022/02/08 17:14:20;;;;;;;49.47;46.57;;;;;;;12.81;100.00;102604.83;2012281;71;32959;-72
2022/02/08 17:45:57;;;;;;;47.80;44.87;;;;;;;12.66;100.00;102633.36;2003279;71;33405;-75
2022/02/08 17:51:57;;;;;;;48.30;45.70;;;;;;;12.70;100.00;102630.34;2004660;71;32832;-74
2022/02/08 17:58:02;;;;;;;46.80;43.90;;;;;;;12.59;100.00;102632.66;2015897;71;32830;-73
2022/02/08 18:04:05;;;;;;;48.00;45.20;;;;;;;12.64;100.00;102621.05;2013866;71;32877;-74
2022/02/08 18:10:11;;;;;;;48.77;45.87;;;;;;;12.56;100.00;102631.80;1994455;71;32906;-73
2022/02/08 18:16:15;;;;;;;46.63;43.80;;;;;;;12.53;100.00;102639.28;2003595;71;32840;-71
2022/02/08 18:22:31;;;;;;;47.37;44.67;;;;;;;12.57;100.00;102639.91;2014333;71;32903;-72
2022/02/08 18:28:46;;;;;;;47.60;44.80;;;;;;;12.49;100.00;102638.10;2006554;71;32835;-72
2022/02/08 19:13:27;;;;;;;48.30;45.50;;;;;;;12.24;100.00;102643.53;2010945;71;32802;-73
2022/02/08 19:19:33;;;;;;;47.13;44.63;;;;;;;12.34;100.00;102638.69;2013847;71;33054;-73
2022/02/08 19:25:25;;;;;;;54.90;51.87;;;;;;;12.22;100.00;102630.42;1994138;71;32766;-72
2022/02/08 19:31:27;;;;;;;60.70;57.10;;;;;;;12.13;100.00;102627.75;2013898;71;32866;-74
2022/02/08 19:37:31;;;;;;;60.67;56.97;;;;;;;12.16;100.00;102619.42;2017581;71;33481;-74
2022/02/08 19:43:34;;;;;;;60.57;57.07;;;;;;;12.41;100.00;102619.84;2005169;71;32925;-71
2022/02/08 19:49:37;;;;;;;63.27;59.77;;;;;;;12.18;100.00;102620.03;2003573;71;32896;-74
2022/02/08 19:55:47;;;;;;;62.23;58.63;;;;;;;12.20;100.00;102620.61;2010700;71;32847;-75
2022/02/08 20:01:52;;;;;;;62.33;58.53;;;;;;;12.17;100.00;102628.09;2015515;71;32794;-75
2022/02/08 20:07:50;;;;;;;61.60;57.90;;;;;;;12.13;100.00;102618.55;1991232;71;33259;-73
2022/02/08 20:13:56;;;;;;;60.83;57.33;;;;;;;12.16;100.00;102622.21;2008356;71;32854;-73
2022/02/08 20:20:03;;;;;;;62.63;58.83;;;;;;;12.08;100.00;102622.64;2014195;71;32880;-72
2022/02/08 20:26:03;;;;;;;63.53;59.77;;;;;;;12.05;100.00;102614.25;1999802;71;32833;-71
2022/02/08 20:32:07;;;;;;;64.10;60.20;;;;;;;11.97;100.00;102607.70;2005866;71;33187;-77
2022/02/08 20:38:14;;;;;;;63.20;59.40;;;;;;;11.96;100.00;102608.80;1999965;71;32809;-78
2022/02/08 20:44:15;;;;;;;64.50;60.40;;;;;;;11.92;100.00;102603.97;2012810;71;33292;-75
2022/02/08 20:50:24;;;;;;;63.37;59.30;;;;;;;11.92;100.00;102610.94;2016426;71;33262;-77
2022/02/08 20:56:28;;;;;;;64.23;60.27;;;;;;;11.81;100.00;102618.25;1996024;71;32851;-73
2022/02/08 21:02:37;;;;;;;64.73;60.70;;;;;;;11.76;100.00;102609.28;2012370;71;32916;-72
2022/02/08 21:08:40;;;;;;;62.67;58.47;;;;;;;11.75;100.00;102604.80;1993932;71;32850;-73
2022/02/08 21:14:44;;;;;;;63.50;59.20;;;;;;;11.76;100.00;102598.69;2015925;71;32808;-74
2022/02/08 21:20:47;;;;;;;63.17;58.90;;;;;;;11.67;100.00;102597.38;2005311;71;33363;-73
2022/02/08 21:26:55;;;;;;;63.47;59.37;;;;;;;11.70;100.00;102601.89;1994190;71;32834;-74
2022/02/08 21:52:12;;;;;;;61.97;57.97;;;;;;;11.61;100.00;102600.59;2007066;71;33244;-74
2022/02/08 21:58:13;;;;;;;62.90;58.90;;;;;;;11.54;100.00;102597.13;2008581;71;33346;-73
2022/02/08 22:04:16;;;;;;;63.23;59.13;;;;;;;11.63;100.00;102587.83;1976945;72;33374;-74
2022/02/08 22:15:43;;;;;;;60.17;56.27;;;;;;;11.57;100.00;102594.38;1993427;71;33070;-74
2022/02/08 22:16:52;;;;;;;61.93;57.70;;;;;;;11.41;100.00;102580.73;2013627;71;33261;-77
2022/02/08 22:22:49;;;;;;;63.57;59.17;;;;;;;11.53;100.00;102588.48;2003195;71;32836;-77
2022/02/08 22:29:16;;;;;;;64.97;60.67;;;;;;;11.45;100.00;102588.03;2012653;71;32861;-75
2022/02/08 22:35:21;;;;;;;62.30;58.17;;;;;;;11.37;100.00;102567.87;2012482;71;32799;-74
2022/02/08 22:41:22;;;;;;;63.40;59.20;;;;;;;11.42;100.00;102570.72;2003534;71;33302;-75
2022/02/08 22:47:23;;;;;;;64.07;59.77;;;;;;;11.32;100.00;102553.86;2012785;71;32815;-75
2022/02/08 22:53:26;;;;;;;61.57;57.47;;;;;;;11.29;100.00;102548.80;2005368;71;33488;-75
2022/02/08 22:59:28;;;;;;;63.00;58.90;;;;;;;11.34;100.00;102551.66;2004129;71;32817;-75
2022/02/08 23:05:31;;;;;;;64.67;60.30;;;;;;;11.22;100.00;102543.91;2002118;71;32718;-76
2022/02/08 23:11:53;;;;;;;65.43;61.23;;;;;;;11.31;100.00;102549.38;1999550;71;32954;-75
2022/02/08 23:36:57;;;;;;;69.30;64.80;;;;;;;11.08;100.00;102561.16;2014184;71;32809;-75
2022/02/08 23:43:00;;;;;;;65.67;61.07;;;;;;;11.13;100.00;102552.34;2016230;71;33273;-75
2022/02/08 23:49:17;;;;;;;68.10;63.40;;;;;;;11.14;100.00;102555.98;2010690;71;32881;-76
2022/02/08 23:55:18;;;;;;;66.90;62.23;;;;;;;11.12;100.00;102559.57;2010773;71;33266;-74
